Time;durP1;ratioP1;P1;durP2;ratioP2;P2;SDS_P1;SDS_P2;PMS_P1;PMS_P2;Temp;Humidity;BMP_temperature;BMP_pressure;BME280_temperature;BME280_humidity;BME280_pressure;Samples;Min_cycle;Max_cycle;Signal;HPM_P1;HPM_P2
2021/01/05 00:00:37;;;;;;;3.43;2.60;;;;;;;1.05;100.00;100740.95;1766279;81;20924;-74
2021/01/05 00:03:05;;;;;;;3.77;2.33;;;;;;;1.03;100.00;100746.01;1766347;81;21004;-73
2021/01/05 00:05:32;;;;;;;7.27;3.43;;;;;;;1.00;100.00;100751.52;1766407;81;21208;-73
2021/01/05 00:08:00;;;;;;;9.63;3.60;;;;;;;0.97;100.00;100745.87;1766265;81;20984;-73
2021/01/05 00:10:28;;;;;;;3.37;2.10;;;;;;;0.95;100.00;100747.78;1766344;80;20988;-73
2021/01/05 00:12:55;;;;;;;3.07;2.60;;;;;;;0.94;100.00;100749.59;1735111;82;20941;-74
2021/01/05 00:15:23;;;;;;;5.10;2.50;;;;;;;0.93;100.00;100745.20;1735074;82;20989;-74
2021/01/05 00:17:51;;;;;;;4.47;2.53;;;;;;;0.94;100.00;100742.94;1735098;82;22066;-74
2021/01/05 00:20:25;;;;;;;3.80;2.80;;;;;;;0.95;100.00;100735.31;1735161;82;21024;-73
2021/01/05 00:22:53;;;;;;;4.07;2.70;;;;;;;0.94;100.00;100746.93;1735091;82;20945;-73
2021/01/05 00:25:21;;;;;;;2.63;1.90;;;;;;;0.92;100.00;100745.29;1735114;82;21017;-74
2021/01/05 00:27:49;;;;;;;2.77;2.07;;;;;;;0.88;100.00;100737.96;1735163;82;21163;-74
2021/01/05 00:30:20;;;;;;;5.13;2.63;;;;;;;0.83;100.00;100734.71;1734998;82;21420;-74
2021/01/05 00:32:50;;;;;;;5.23;3.47;;;;;;;0.80;100.00;100734.04;1739518;81;20997;-73
2021/01/05 00:35:23;;;;;;;3.80;2.50;;;;;;;0.75;100.00;100737.84;1753403;81;20950;-74
2021/01/05 00:37:51;;;;;;;3.30;2.65;;;;;;;0.71;100.00;100738.98;1693509;80;21681;-74
2021/01/05 00:40:21;;;;;;;2.23;2.00;;;;;;;0.67;100.00;100736.09;1723397;83;21000;-74
2021/01/05 00:42:49;;;;;;;4.50;2.50;;;;;;;0.65;100.00;100738.00;1692859;84;21357;-74
2021/01/05 00:45:33;;;;;;;4.77;3.47;;;;;;;0.63;100.00;100734.58;1728799;81;20917;-73
2021/01/05 00:48:01;;;;;;;5.67;2.70;;;;;;;0.61;100.00;100731.63;1721919;83;21048;-73
2021/01/05 00:50:30;;;;;;;3.60;1.97;;;;;;;0.58;100.00;100729.99;1753300;81;21020;-74
2021/01/05 00:53:00;;;;;;;6.93;3.10;;;;;;;0.56;100.00;100727.41;1721760;83;20966;-73
2021/01/05 00:55:29;;;;;;;2.33;2.13;;;;;;;0.58;100.00;100724.67;1753314;81;21367;-74
2021/01/05 00:57:58;;;;;;;3.10;2.33;;;;;;;0.59;100.00;100724.22;1718455;83;21533;-73
2021/01/05 01:00:27;;;;;;;3.20;2.40;;;;;;;0.59;100.00;100724.22;1727249;83;21091;-73
2021/01/05 01:02:56;;;;;;;2.00;1.53;;;;;;;0.58;100.00;100726.00;1738753;82;20981;-72
2021/01/05 01:05:26;;;;;;;2.57;2.30;;;;;;;0.55;100.00;100726.20;1727166;83;21004;-74
2021/01/05 01:07:54;;;;;;;5.83;3.13;;;;;;;0.53;100.00;100734.27;1742421;82;21675;-73
2021/01/05 01:10:22;;;;;;;4.23;3.03;;;;;;;0.50;100.00;100730.94;1727265;83;21639;-73
2021/01/05 01:12:50;;;;;;;2.77;2.50;;;;;;;0.48;100.00;100727.03;1753024;81;20980;-73
2021/01/05 01:15:19;;;;;;;2.27;2.00;;;;;;;0.45;100.00;100730.34;1753372;81;21027;-74
2021/01/05 01:17:47;;;;;;;2.80;2.30;;;;;;;0.41;100.00;100723.02;1753314;81;21613;-73
2021/01/05 01:20:16;;;;;;;5.47;2.80;;;;;;;0.39;100.00;100716.93;1753072;81;21200;-74
2021/01/05 01:22:47;;;;;;;2.37;2.00;;;;;;;0.36;100.00;100715.28;1753414;81;20940;-74
2021/01/05 01:25:15;;;;;;;4.17;2.10;;;;;;;0.32;100.00;100703.12;1753445;81;21174;-74
2021/01/05 01:27:43;;;;;;;1.97;1.83;;;;;;;0.29;100.00;100706.43;1761142;80;20947;-73
2021/01/05 01:30:13;;;;;;;1.60;1.50;;;;;;;0.26;100.00;100709.27;1792801;80;21547;-74
2021/01/05 01:32:43;;;;;;;1.90;1.80;;;;;;;0.23;100.00;100713.42;1789434;79;21622;-73
2021/01/05 01:35:12;;;;;;;2.87;1.80;;;;;;;0.20;100.00;100702.50;1802272;79;21060;-74
2021/01/05 01:37:41;;;;;;;3.57;2.60;;;;;;;0.18;100.00;100707.90;1802514;79;21108;-73
2021/01/05 01:40:12;;;;;;;3.07;1.93;;;;;;;0.17;100.00;100701.34;1789825;79;21048;-73
2021/01/05 01:42:40;;;;;;;4.47;2.70;;;;;;;0.15;100.00;100692.11;1810908;79;21454;-72
2021/01/05 01:45:10;;;;;;;3.80;2.30;;;;;;;0.15;100.00;100693.92;1759231;80;21308;-74
2021/01/05 01:47:39;;;;;;;3.40;2.20;;;;;;;0.14;100.00;100697.06;1808827;79;21021;-73
2021/01/05 01:50:15;;;;;;;2.97;2.30;;;;;;;0.10;100.00;100696.83;1786967;80;21049;-72
2021/01/05 01:53:10;;;;;;;1.93;1.47;;;;;;;0.06;100.00;100695.30;1813352;79;20950;-73
2021/01/05 01:56:16;;;;;;;2.37;2.17;;;;;;;0.01;100.00;100696.52;1789861;79;21586;-74
2021/01/05 01:58:57;;;;;;;3.10;2.10;;;;;;;-0.04;100.00;100698.09;1709463;83;21215;-74
2021/01/05 02:01:54;;;;;;;2.63;2.13;;;;;;;-0.08;100.00;100699.22;1689099;83;21020;-73
2021/01/05 02:04:33;;;;;;;4.50;2.27;;;;;;;-0.11;100.00;100697.58;1709810;83;21024;-74
2021/01/05 02:07:48;;;;;;;3.10;2.30;;;;;;;-0.11;100.00;100680.30;1889893;76;26051;-74
2021/01/05 02:10:41;;;;;;;2.57;2.23;;;;;;;-0.17;100.00;100692.62;1855742;77;20919;-73
2021/01/05 02:13:35;;;;;;;4.00;2.80;;;;;;;-0.20;100.00;100700.28;1864124;77;21300;-72
2021/01/05 02:16:26;;;;;;;4.37;2.83;;;;;;;-0.21;100.00;100689.76;1864098;76;20985;-73
2021/01/05 02:18:58;;;;;;;3.93;2.80;;;;;;;-0.22;100.00;100683.56;1863169;77;20989;-73
2021/01/05 02:21:50;;;;;;;4.95;2.45;;;;;;;-0.24;100.00;100685.45;1864367;76;21454;-74
2021/01/05 02:25:06;;;;;;;5.47;3.23;;;;;;;-0.27;100.00;100674.98;1864109;77;20910;-73
2021/01/05 02:27:39;;;;;;;3.30;2.30;;;;;;;-0.29;100.00;100673.38;1864242;77;21887;-74
2021/01/05 02:30:09;;;;;;;2.72;2.52;;;;;;;-0.36;100.00;100675.52;1861567;77;20914;-73
2021/01/05 02:33:01;;;;;;;4.10;2.90;;;;;;;-0.41;100.00;100678.44;1864136;77;21032;-73
2021/01/05 02:35:48;;;;;;;2.60;2.40;;;;;;;-0.44;100.00;100673.29;1861178;77;20997;-73
2021/01/05 02:39:07;;;;;;;3.50;1.47;;;;;;;-0.48;100.00;100673.53;1786680;80;20990;-73
2021/01/05 02:42:22;;;;;;;2.47;2.30;;;;;;;-0.47;100.00;100665.96;1889826;76;24972;-72
2021/01/05 02:45:22;;;;;;;2.73;2.30;;;;;;;-0.51;100.00;100664.39;1808874;79;21653;-74
2021/01/05 02:48:08;;;;;;;4.80;2.43;;;;;;;-0.49;100.00;100664.72;1889835;76;25498;-73
2021/01/05 02:51:33;;;;;;;2.33;2.13;;;;;;;-0.55;100.00;100655.73;1860844;77;20923;-73
2021/01/05 02:55:00;;;;;;;4.70;1.80;;;;;;;-0.55;100.00;100660.20;1860862;77;21192;-74
2021/01/05 02:58:03;;;;;;;3.30;3.00;;;;;;;-0.55;100.00;100666.84;1860690;77;21041;-73
2021/01/05 03:01:30;;;;;;;1.57;1.17;;;;;;;-0.53;100.00;100663.18;1845295;76;25933;-74
2021/01/05 03:04:16;;;;;;;3.70;3.07;;;;;;;-0.58;100.00;100658.11;1815373;78;20941;-72
2021/01/05 03:07:18;;;;;;;3.33;2.17;;;;;;;-0.57;100.00;100661.61;1815311;79;22053;-73
2021/01/05 03:10:28;;;;;;;3.60;2.00;;;;;;;-0.58;100.00;100659.92;1815278;79;21039;-72
2021/01/05 03:13:53;;;;;;;1.33;1.10;;;;;;;-0.61;100.00;100654.77;1783093;79;20925;-74
2021/01/05 03:16:42;;;;;;;2.63;1.83;;;;;;;-0.63;100.00;100642.89;1757731;80;20991;-74
2021/01/05 03:19:45;;;;;;;4.43;3.17;;;;;;;-0.65;100.00;100641.28;1758139;80;21338;-73
2021/01/05 03:22:34;;;;;;;2.30;2.10;;;;;;;-0.67;100.00;100640.51;1783265;80;22867;-73
2021/01/05 03:25:17;;;;;;;2.90;2.17;;;;;;;-0.69;100.00;100635.28;1716566;82;20978;-72
2021/01/05 03:28:12;;;;;;;3.63;2.30;;;;;;;-0.65;100.00;100620.88;1852366;76;26155;-73
2021/01/05 03:31:11;;;;;;;5.33;2.60;;;;;;;-0.70;100.00;100624.25;1769990;81;20879;-73
2021/01/05 03:34:01;;;;;;;6.40;3.03;;;;;;;-0.70;100.00;100626.06;1726829;82;21277;-74
2021/01/05 03:36:47;;;;;;;1.97;1.80;;;;;;;-0.70;100.00;100631.38;1711405;83;21051;-74
2021/01/05 03:39:35;;;;;;;4.00;2.80;;;;;;;-0.70;100.00;100637.53;1681640;84;21033;-73
2021/01/05 03:42:21;;;;;;;2.77;2.47;;;;;;;-0.69;100.00;100635.73;1711491;82;20981;-74
2021/01/05 03:45:08;;;;;;;3.50;2.30;;;;;;;-0.73;100.00;100647.47;1661213;84;21061;-74
2021/01/05 03:47:55;;;;;;;3.20;2.10;;;;;;;-0.80;100.00;100634.54;1681175;85;22473;-73
2021/01/05 03:50:42;;;;;;;2.90;2.40;;;;;;;-0.85;100.00;100630.39;1713314;83;21116;-74
2021/01/05 03:53:28;;;;;;;3.93;2.23;;;;;;;-0.91;100.00;100630.27;1664096;85;21586;-72
2021/01/05 03:56:14;;;;;;;2.50;2.30;;;;;;;-0.98;100.00;100625.75;1710082;83;21685;-74
2021/01/05 03:59:00;;;;;;;2.00;1.80;;;;;;;-1.01;100.00;100614.44;1663981;84;21574;-74
2021/01/05 04:01:53;;;;;;;2.47;2.27;;;;;;;-1.03;100.00;100631.77;1710092;83;21272;-73
2021/01/05 04:04:21;;;;;;;3.20;2.07;;;;;;;-1.06;100.00;100622.67;1663712;85;21627;-72
2021/01/05 04:06:48;;;;;;;1.70;1.60;;;;;;;-1.09;100.00;100619.33;1710084;83;20978;-73
2021/01/05 04:09:16;;;;;;;4.70;3.13;;;;;;;-1.12;100.00;100619.48;1664526;84;21237;-73
2021/01/05 04:11:44;;;;;;;2.97;2.30;;;;;;;-1.15;100.00;100614.73;1798567;78;20926;-73
2021/01/05 04:14:12;;;;;;;3.20;2.43;;;;;;;-1.15;100.00;100619.19;1810497;79;21031;-76
2021/01/05 04:16:40;;;;;;;2.80;2.43;;;;;;;-1.17;100.00;100612.63;1810193;79;20958;-74
2021/01/05 04:19:07;;;;;;;2.10;1.90;;;;;;;-1.16;100.00;100628.08;1810425;78;21572;-74
2021/01/05 04:21:36;;;;;;;3.37;1.67;;;;;;;-1.16;100.00;100629.41;1814799;78;21014;-73
2021/01/05 04:24:04;;;;;;;2.17;1.97;;;;;;;-1.14;100.00;100626.20;1810270;79;21045;-73
2021/01/05 04:26:35;;;;;;;3.60;3.10;;;;;;;-1.14;100.00;100623.54;1847679;77;22070;-74
2021/01/05 04:29:03;;;;;;;4.17;2.77;;;;;;;-1.15;100.00;100619.19;1849276;77;21178;-73
2021/01/05 04:31:37;;;;;;;2.90;1.87;;;;;;;-1.15;100.00;100618.71;1849039;77;20961;-74
2021/01/05 04:34:04;;;;;;;3.03;2.20;;;;;;;-1.17;100.00;100624.58;1846631;77;21005;-73
2021/01/05 04:36:32;;;;;;;2.17;1.97;;;;;;;-1.16;100.00;100624.09;1849150;77;21439;-73
2021/01/05 04:39:00;;;;;;;2.67;2.47;;;;;;;-1.16;100.00;100622.77;1848595;77;21271;-73
2021/01/05 04:41:29;;;;;;;3.27;2.23;;;;;;;-1.17;100.00;100619.27;1848431;77;20938;-72
2021/01/05 04:43:58;;;;;;;3.63;2.50;;;;;;;-1.17;100.00;100625.91;1825308;77;21001;-74
2021/01/05 04:46:44;;;;;;;3.53;2.10;;;;;;;-1.15;100.00;100627.15;1845067;77;21467;-73
2021/01/05 04:49:39;;;;;;;5.03;2.90;;;;;;;-1.16;100.00;100628.92;1834919;78;20938;-74
2021/01/05 04:52:10;;;;;;;3.13;2.80;;;;;;;-1.17;100.00;100627.67;1831907;78;21372;-74
2021/01/05 04:54:58;;;;;;;4.33;2.60;;;;;;;-1.18;100.00;100634.79;1834742;78;21016;-72
2021/01/05 04:57:27;;;;;;;4.37;2.30;;;;;;;-1.22;100.00;100629.27;1833739;78;21531;-73
2021/01/05 05:00:17;;;;;;;3.43;2.60;;;;;;;-1.27;100.00;100626.47;1818310;79;21547;-73
2021/01/05 05:03:05;;;;;;;2.00;1.73;;;;;;;-1.30;100.00;100636.77;1818466;79;20981;-72
2021/01/05 05:05:45;;;;;;;2.20;2.03;;;;;;;-1.35;100.00;100630.39;1817418;79;21191;-73
2021/01/05 05:09:09;;;;;;;2.63;2.07;;;;;;;-1.37;100.00;100641.52;1818237;78;20978;-74
2021/01/05 05:11:55;;;;;;;2.53;1.83;;;;;;;-1.37;100.00;100643.33;1810763;78;21470;-75
2021/01/05 05:14:45;;;;;;;2.23;2.03;;;;;;;-1.40;100.00;100648.34;1801563;79;21032;-75
2021/01/05 05:17:54;;;;;;;2.17;1.97;;;;;;;-1.40;100.00;100659.40;1715871;83;21519;-73
2021/01/05 05:20:38;;;;;;;3.10;2.03;;;;;;;-1.39;100.00;100656.67;1690198;82;22284;-73
2021/01/05 05:23:33;;;;;;;2.77;2.57;;;;;;;-1.37;100.00;100657.92;1688304;85;20990;-73
2021/01/05 05:26:12;;;;;;;4.30;2.83;;;;;;;-1.37;100.00;100660.09;1687061;85;21489;-72
2021/01/05 05:29:13;;;;;;;2.40;2.20;;;;;;;-1.31;100.00;100671.33;1845338;76;26900;-75
2021/01/05 05:31:41;;;;;;;2.20;1.40;;;;;;;-1.36;100.00;100665.80;1815503;79;21000;-73
2021/01/05 05:34:23;;;;;;;1.30;1.23;;;;;;;-1.35;100.00;100676.82;1784152;79;22629;-74
2021/01/05 05:37:12;;;;;;;3.15;2.47;;;;;;;-1.33;100.00;100682.02;1809146;79;21028;-73
2021/01/05 05:40:14;;;;;;;2.27;2.07;;;;;;;-1.32;100.00;100685.08;1777373;79;21002;-74
2021/01/05 05:42:54;;;;;;;1.73;1.10;;;;;;;-1.30;100.00;100687.66;1777003;79;21028;-75
2021/01/05 05:45:29;;;;;;;1.57;1.40;;;;;;;-1.26;100.00;100689.20;1778444;79;20987;-73
2021/01/05 05:48:28;;;;;;;2.00;1.90;;;;;;;-1.26;100.00;100689.20;1782613;80;21123;-74
2021/01/05 05:51:16;;;;;;;4.60;2.87;;;;;;;-1.25;100.00;100693.59;1782547;80;21020;-74
2021/01/05 05:53:49;;;;;;;3.97;2.23;;;;;;;-1.25;100.00;100695.76;1782844;80;20928;-73
2021/01/05 05:56:18;;;;;;;1.67;1.52;;;;;;;-1.25;100.00;100697.09;1782849;79;21055;-73
2021/01/05 05:58:54;;;;;;;2.93;2.23;;;;;;;-1.25;100.00;100694.44;1782835;80;21479;-74
2021/01/05 06:01:27;;;;;;;4.17;2.93;;;;;;;-1.25;100.00;100689.13;1757688;80;21197;-69
2021/01/05 06:03:57;;;;;;;3.33;2.13;;;;;;;-1.23;100.00;100687.24;1733481;80;21020;-70
2021/01/05 06:06:25;;;;;;;2.40;1.93;;;;;;;-1.21;100.00;100676.08;1757827;80;20948;-71
2021/01/05 06:08:53;;;;;;;1.90;1.67;;;;;;;-1.20;100.00;100668.52;1782692;80;21039;-72
2021/01/05 06:11:23;;;;;;;3.30;2.07;;;;;;;-1.19;100.00;100676.88;1758910;80;21045;-70
2021/01/05 06:13:51;;;;;;;4.30;2.17;;;;;;;-1.18;100.00;100669.77;1727928;83;21013;-67
2021/01/05 06:16:18;;;;;;;3.70;2.53;;;;;;;-1.15;100.00;100673.12;1737387;80;21186;-74
2021/01/05 06:18:46;;;;;;;2.97;2.03;;;;;;;-1.10;100.00;100674.66;1732013;82;21052;-75
2021/01/05 06:21:14;;;;;;;3.13;1.93;;;;;;;-1.07;100.00;100664.73;1770159;81;20985;-69
2021/01/05 06:23:42;;;;;;;3.13;2.30;;;;;;;-1.05;100.00;100659.36;1764280;81;21064;-69
2021/01/05 06:26:10;;;;;;;3.33;2.07;;;;;;;-1.04;100.00;100660.61;1746974;82;21383;-65
2021/01/05 06:28:38;;;;;;;4.07;3.17;;;;;;;-1.03;100.00;100657.47;1769644;81;20946;-74
2021/01/05 06:31:06;;;;;;;2.63;2.43;;;;;;;-1.01;100.00;100656.91;1746915;82;20966;-69
2021/01/05 06:33:34;;;;;;;4.80;2.83;;;;;;;-0.99;100.00;100655.06;1769390;81;21052;-69
2021/01/05 06:36:03;;;;;;;3.20;2.47;;;;;;;-0.98;100.00;100650.97;1769532;81;20993;-69
2021/01/05 06:38:31;;;;;;;3.10;2.50;;;;;;;-0.98;100.00;100649.64;1769372;81;21342;-69
2021/01/05 06:40:59;;;;;;;2.60;2.13;;;;;;;-0.94;100.00;100645.50;1734003;82;21006;-65
2021/01/05 06:43:28;;;;;;;3.17;2.53;;;;;;;-0.92;100.00;100639.64;1762044;79;21629;-65
2021/01/05 06:45:56;;;;;;;5.17;2.77;;;;;;;-0.92;100.00;100643.17;1748670;80;21035;-66
2021/01/05 06:48:24;;;;;;;5.67;3.57;;;;;;;-0.88;100.00;100651.83;1740009;82;21182;-69
2021/01/05 06:50:52;;;;;;;5.07;2.73;;;;;;;-0.87;100.00;100646.41;1756425;81;21336;-66
2021/01/05 06:53:20;;;;;;;1.83;1.73;;;;;;;-0.86;100.00;100648.13;1761320;81;21013;-66
2021/01/05 06:55:48;;;;;;;2.87;1.93;;;;;;;-0.83;100.00;100632.52;1743907;82;20958;-65
2021/01/05 06:58:17;;;;;;;3.00;2.50;;;;;;;-0.81;100.00;100638.61;1764509;81;21069;-65
2021/01/05 07:00:45;;;;;;;4.17;1.97;;;;;;;-0.79;100.00;100628.27;1734306;82;21204;-66
2021/01/05 07:03:13;;;;;;;4.30;2.60;;;;;;;-0.77;100.00;100629.03;1762126;81;21456;-67
2021/01/05 07:05:40;;;;;;;3.27;2.27;;;;;;;-0.75;100.00;100610.37;1740634;82;21029;-67
2021/01/05 07:08:08;;;;;;;1.53;1.43;;;;;;;-0.72;100.00;100606.22;1764059;81;20942;-67
2021/01/05 07:10:37;;;;;;;2.17;1.77;;;;;;;-0.70;100.00;100603.00;1764935;79;21008;-66
2021/01/05 07:13:04;;;;;;;4.83;3.27;;;;;;;-0.65;100.00;100604.09;1737415;82;21179;-66
2021/01/05 07:15:33;;;;;;;3.30;2.43;;;;;;;-0.63;100.00;100597.73;1769536;81;21208;-65
2021/01/05 07:18:03;;;;;;;2.23;2.03;;;;;;;-0.62;100.00;100598.58;1769316;81;21059;-69
2021/01/05 07:20:33;;;;;;;4.73;2.53;;;;;;;-0.58;100.00;100602.80;1765217;81;21051;-67
2021/01/05 07:23:01;;;;;;;4.87;2.80;;;;;;;-0.59;100.00;100603.73;1769526;81;21059;-67
2021/01/05 07:25:29;;;;;;;2.67;1.90;;;;;;;-0.58;100.00;100596.16;1769815;79;21003;-68
2021/01/05 07:27:57;;;;;;;2.07;1.90;;;;;;;-0.58;100.00;100586.87;1777884;80;21427;-67
2021/01/05 07:30:27;;;;;;;6.93;3.03;;;;;;;-0.59;100.00;100582.00;1788483;80;21599;-65
2021/01/05 07:32:55;;;;;;;4.67;3.00;;;;;;;-0.56;100.00;100586.78;1788527;80;21126;-66
2021/01/05 07:35:24;;;;;;;3.07;2.07;;;;;;;-0.55;100.00;100595.12;1784582;80;20957;-66
2021/01/05 07:37:53;;;;;;;3.87;1.90;;;;;;;-0.56;100.00;100596.08;1763610;80;20997;-66
2021/01/05 07:40:25;;;;;;;4.57;2.67;;;;;;;-0.56;100.00;100591.62;1773771;80;21182;-66
2021/01/05 07:42:53;;;;;;;7.77;4.10;;;;;;;-0.55;100.00;100588.48;1790607;80;21029;-64
2021/01/05 07:45:21;;;;;;;4.20;2.57;;;;;;;-0.54;100.00;100582.23;1790657;80;21562;-69
2021/01/05 07:47:50;;;;;;;2.40;2.23;;;;;;;-0.55;100.00;100581.36;1789652;80;21072;-68
2021/01/05 07:50:23;;;;;;;2.43;2.23;;;;;;;-0.54;100.00;100583.56;1790560;80;21495;-66
2021/01/05 07:52:57;;;;;;;4.27;2.73;;;;;;;-0.50;100.00;100595.23;1786562;80;21364;-67
2021/01/05 07:55:27;;;;;;;2.85;2.50;;;;;;;-0.47;100.00;100585.77;1790675;80;21001;-67
2021/01/05 07:57:55;;;;;;;5.17;2.50;;;;;;;-0.44;100.00;100583.44;1770731;80;21056;-65
2021/01/05 08:00:27;;;;;;;3.90;2.53;;;;;;;-0.44;100.00;100584.28;1771461;80;20957;-67
2021/01/05 08:02:56;;;;;;;7.73;3.70;;;;;;;-0.43;100.00;100571.36;1777421;80;21061;-67
2021/01/05 08:05:27;;;;;;;8.27;3.70;;;;;;;-0.41;100.00;100570.83;1777426;80;21370;-67
2021/01/05 08:07:56;;;;;;;5.70;3.20;;;;;;;-0.41;100.00;100569.95;1772594;80;22166;-68
2021/01/05 08:10:33;;;;;;;4.23;2.87;;;;;;;-0.40;100.00;100571.67;1777209;80;21067;-67
2021/01/05 08:13:02;;;;;;;3.07;2.27;;;;;;;-0.37;100.00;100575.94;1780097;78;21089;-68
2021/01/05 08:15:31;;;;;;;2.90;2.20;;;;;;;-0.34;100.00;100566.48;1773831;80;21139;-66
2021/01/05 08:17:59;;;;;;;2.67;2.47;;;;;;;-0.32;100.00;100563.25;1776435;80;21428;-66
2021/01/05 08:20:30;;;;;;;4.33;2.70;;;;;;;-0.28;100.00;100570.97;1773403;80;21032;-66
2021/01/05 08:23:04;;;;;;;7.43;3.80;;;;;;;-0.22;100.00;100556.47;1774275;80;20902;-66
2021/01/05 08:25:33;;;;;;;5.33;3.37;;;;;;;-0.17;100.00;100562.37;1772255;80;21365;-66
2021/01/05 08:28:01;;;;;;;5.50;2.87;;;;;;;-0.09;100.00;100561.91;1769897;80;21044;-68
2021/01/05 08:30:34;;;;;;;2.67;2.47;;;;;;;-0.07;100.00;100546.27;1774480;79;21197;-65
2021/01/05 08:33:05;;;;;;;7.73;2.90;;;;;;;0.01;100.00;100549.80;1697839;82;21105;-66
2021/01/05 08:35:34;;;;;;;7.07;3.77;;;;;;;0.05;100.00;100549.14;1654880;86;21021;-66
2021/01/05 08:38:01;;;;;;;4.77;3.10;;;;;;;0.09;100.00;100546.22;1674249;84;21080;-66
2021/01/05 08:40:33;;;;;;;7.53;3.73;;;;;;;0.16;100.00;100538.25;1682551;84;21255;-66
2021/01/05 08:43:04;;;;;;;6.63;3.03;;;;;;;0.24;100.00;100543.58;1692727;84;21408;-66
2021/01/05 08:45:33;;;;;;;8.83;4.63;;;;;;;0.30;100.00;100535.22;1673268;84;21265;-66
2021/01/05 08:48:01;;;;;;;9.47;4.93;;;;;;;0.34;100.00;100539.42;1688354;84;20997;-75
2021/01/05 08:50:31;;;;;;;7.40;3.93;;;;;;;0.38;100.00;100532.47;1663967;84;21271;-66
2021/01/05 08:53:05;;;;;;;4.97;2.67;;;;;;;0.42;100.00;100528.30;1663841;84;21202;-67
2021/01/05 08:55:40;;;;;;;8.03;3.10;;;;;;;0.47;100.00;100527.06;1668011;84;21621;-69
2021/01/05 08:58:08;;;;;;;5.70;2.87;;;;;;;0.53;100.00;100524.49;1672702;84;21703;-68
2021/01/05 09:00:36;;;;;;;9.40;3.97;;;;;;;0.60;100.00;100532.47;1667885;84;20990;-69
2021/01/05 09:03:05;;;;;;;3.40;2.73;;;;;;;0.65;100.00;100518.41;1670789;84;21021;-70
2021/01/05 09:05:39;;;;;;;5.63;3.53;;;;;;;0.70;100.00;100520.31;1665512;84;21185;-71
2021/01/05 09:08:07;;;;;;;5.40;3.23;;;;;;;0.75;100.00;100517.38;1677728;84;21234;-78
2021/01/05 09:10:34;;;;;;;6.53;3.80;;;;;;;0.78;100.00;100509.20;1682129;84;20982;-72
2021/01/05 09:13:02;;;;;;;8.10;4.33;;;;;;;0.78;100.00;100506.54;1683462;84;22007;-75
2021/01/05 09:15:30;;;;;;;14.23;5.80;;;;;;;0.81;100.00;100501.48;1671721;84;21770;-70
2021/01/05 09:18:01;;;;;;;5.60;3.23;;;;;;;0.79;100.00;100488.75;1653024;86;21234;-71
2021/01/05 09:20:27;;;;;;;5.90;3.53;;;;;;;0.74;100.00;100495.23;1661616;86;21308;-70
2021/01/05 09:22:56;;;;;;;6.27;3.50;;;;;;;0.73;100.00;100497.50;1655900;86;21758;-69
2021/01/05 09:25:25;;;;;;;11.17;4.30;;;;;;;0.75;100.00;100501.41;1650219;84;21291;-68
2021/01/05 09:27:53;;;;;;;10.13;4.60;;;;;;;0.79;100.00;100491.41;1664562;83;21227;-68
2021/01/05 09:30:22;;;;;;;5.50;3.40;;;;;;;0.81;100.00;100490.84;1749493;80;21024;-68
2021/01/05 09:32:50;;;;;;;7.70;3.27;;;;;;;0.86;100.00;100493.58;1776448;80;21356;-70
2021/01/05 09:35:19;;;;;;;9.73;4.17;;;;;;;0.85;100.00;100494.55;1768379;79;20998;-73
2021/01/05 09:37:49;;;;;;;6.83;3.43;;;;;;;0.80;100.00;100489.11;1787619;80;20980;-69
2021/01/05 09:40:17;;;;;;;6.40;2.80;;;;;;;0.77;100.00;100485.34;1787790;79;21070;-71
2021/01/05 09:42:45;;;;;;;6.30;3.67;;;;;;;0.82;100.00;100485.91;1787576;80;20948;-69
2021/01/05 09:45:15;;;;;;;9.53;4.40;;;;;;;0.98;100.00;100484.45;1768761;79;21246;-68
2021/01/05 09:47:43;;;;;;;5.37;2.87;;;;;;;1.17;100.00;100476.09;1781303;80;21159;-69
2021/01/05 09:50:12;;;;;;;8.77;4.03;;;;;;;1.37;100.00;100462.81;1772831;80;21066;-65
2021/01/05 09:52:40;;;;;;;9.03;4.30;;;;;;;1.58;100.00;100453.38;1775139;80;21051;-65
2021/01/05 09:55:09;;;;;;;8.60;4.23;;;;;;;1.75;100.00;100444.71;1776410;80;21049;-68
2021/01/05 09:57:37;;;;;;;10.93;4.50;;;;;;;1.90;100.00;100449.00;1740620;82;21210;-66
2021/01/05 10:00:10;;;;;;;11.00;5.00;;;;;;;2.08;100.00;100445.55;1742611;82;20956;-65
2021/01/05 10:02:38;;;;;;;10.45;5.42;;;;;;;2.22;100.00;100438.76;1742809;82;21152;-69
2021/01/05 10:05:09;;;;;;;6.97;3.73;;;;;;;2.30;100.00;100442.70;1742475;82;20999;-71
2021/01/05 10:07:37;;;;;;;8.17;3.90;;;;;;;2.39;100.00;100431.37;1762733;81;21610;-67
2021/01/05 10:10:07;;;;;;;10.57;4.77;;;;;;;2.48;100.00;100437.41;1740821;82;22536;-67
2021/01/05 10:12:35;;;;;;;11.20;4.67;;;;;;;2.46;100.00;100428.17;1759766;81;21016;-69
2021/01/05 10:15:05;;;;;;;10.47;5.00;;;;;;;2.40;100.00;100427.75;1741895;80;21008;-66
2021/01/05 10:17:32;;;;;;;10.20;4.50;;;;;;;2.30;100.00;100423.53;1735123;82;20996;-67
2021/01/05 10:20:00;;;;;;;10.63;4.90;;;;;;;2.27;100.00;100419.28;1757462;81;21070;-64
2021/01/05 10:22:29;;;;;;;7.77;4.07;;;;;;;2.32;100.00;100412.30;1747352;80;21202;-63
2021/01/05 10:24:58;;;;;;;7.30;3.67;;;;;;;2.43;100.00;100403.52;1778321;79;20962;-65
2021/01/05 10:27:27;;;;;;;8.57;3.93;;;;;;;2.54;100.00;100407.59;1785720;78;20989;-64
2021/01/05 10:29:55;;;;;;;9.27;5.27;;;;;;;2.69;100.00;100396.77;1773082;78;21947;-65
2021/01/05 10:32:24;;;;;;;10.23;4.83;;;;;;;2.77;100.00;100391.73;1779522;79;21009;-65
2021/01/05 10:34:52;;;;;;;11.97;5.57;;;;;;;2.87;100.00;100378.08;1766631;80;21377;-64
2021/01/05 10:37:20;;;;;;;11.17;5.17;;;;;;;2.95;100.00;100372.16;1785759;79;21010;-65
2021/01/05 10:39:49;;;;;;;10.67;5.03;;;;;;;2.99;100.00;100367.81;1746473;80;21560;-66
2021/01/05 10:42:18;;;;;;;9.43;4.03;;;;;;;3.06;100.00;100371.34;1780676;79;21020;-66
2021/01/05 10:44:46;;;;;;;9.73;4.00;;;;;;;3.15;100.00;100376.88;1782140;79;21060;-65
2021/01/05 10:47:14;;;;;;;9.37;4.17;;;;;;;3.21;100.00;100376.89;1776799;79;21367;-65
2021/01/05 10:49:44;;;;;;;7.93;4.87;;;;;;;3.21;100.00;100368.38;1753968;80;21033;-66
2021/01/05 10:52:17;;;;;;;7.70;4.53;;;;;;;3.15;100.00;100362.17;1767265;81;21036;-67
2021/01/05 10:54:48;;;;;;;8.23;4.00;;;;;;;3.04;100.00;100357.61;1743174;80;21159;-66
2021/01/05 10:57:15;;;;;;;11.23;4.33;;;;;;;2.94;100.00;100350.40;1758292;80;21115;-68
2021/01/05 10:59:43;;;;;;;10.37;4.00;;;;;;;2.85;100.00;100353.27;1694354;80;21220;-67
2021/01/05 11:02:11;;;;;;;7.50;3.20;;;;;;;2.77;100.00;100361.86;1760636;79;21004;-67
2021/01/05 11:04:39;;;;;;;10.70;4.77;;;;;;;2.72;100.00;100360.50;1743830;80;21017;-67
2021/01/05 11:07:13;;;;;;;6.40;3.67;;;;;;;2.66;100.00;100349.80;1776477;79;21997;-68
2021/01/05 11:09:42;;;;;;;5.30;3.80;;;;;;;2.61;100.00;100344.78;1757092;80;21021;-67
2021/01/05 11:12:22;;;;;;;9.13;4.67;;;;;;;2.61;100.00;100348.78;1759272;81;21407;-67
2021/01/05 11:14:49;;;;;;;6.20;3.60;;;;;;;2.64;100.00;100356.58;1736775;81;21049;-66
2021/01/05 11:17:20;;;;;;;7.43;4.10;;;;;;;2.65;100.00;100347.58;1762012;81;21044;-65
2021/01/05 11:19:49;;;;;;;6.20;3.33;;;;;;;2.59;100.00;100344.05;1738743;82;21031;-64
2021/01/05 11:22:18;;;;;;;9.30;4.10;;;;;;;2.57;100.00;100343.30;1764983;81;21004;-64
2021/01/05 11:24:48;;;;;;;5.67;3.37;;;;;;;2.57;100.00;100338.46;1739172;82;21289;-65
2021/01/05 11:27:17;;;;;;;5.37;3.30;;;;;;;2.53;100.00;100336.95;1762156;81;21915;-66
2021/01/05 11:29:47;;;;;;;6.47;3.27;;;;;;;2.52;100.00;100336.61;1752029;81;20950;-66
2021/01/05 11:32:16;;;;;;;12.50;4.50;;;;;;;2.49;100.00;100330.15;1776599;80;21199;-66
2021/01/05 11:34:46;;;;;;;8.40;4.27;;;;;;;2.46;100.00;100335.21;1776475;80;21009;-65
2021/01/05 11:37:17;;;;;;;7.73;3.23;;;;;;;2.42;100.00;100331.07;1754179;81;21209;-66
2021/01/05 11:39:48;;;;;;;7.87;3.30;;;;;;;2.42;100.00;100327.91;1777552;80;20951;-68
2021/01/05 11:42:20;;;;;;;7.03;3.83;;;;;;;2.40;100.00;100319.66;1764946;81;20942;-67
2021/01/05 11:44:49;;;;;;;6.53;3.43;;;;;;;2.36;100.00;100319.52;1690000;84;21044;-69
2021/01/05 11:47:20;;;;;;;7.57;3.57;;;;;;;2.31;100.00;100312.33;1699333;84;21135;-67
2021/01/05 11:49:48;;;;;;;6.87;3.33;;;;;;;2.29;100.00;100320.44;1699264;84;21172;-68
2021/01/05 11:52:16;;;;;;;6.20;3.07;;;;;;;2.25;100.00;100324.30;1698856;84;21299;-70
2021/01/05 11:54:44;;;;;;;2.90;2.60;;;;;;;2.20;100.00;100328.63;1699319;84;21032;-68